sensor_id;sensor_type;location;lat;lon;timestamp;P1;durP1;ratioP1;P2;durP2;ratioP2
8113;SDS011;4099;52.684;9.918;2023-08-31T00:03:37;82.40;;;77.83;;
8113;SDS011;4099;52.684;9.918;2023-08-31T00:08:39;71.60;;;67.37;;
8113;SDS011;4099;52.684;9.918;2023-08-31T00:13:43;57.17;;;53.47;;
8113;SDS011;4099;52.684;9.918;2023-08-31T00:18:45;57.00;;;53.23;;
8113;SDS011;4099;52.684;9.918;2023-08-31T00:23:47;68.40;;;64.13;;
8113;SDS011;4099;52.684;9.918;2023-08-31T00:28:51;64.37;;;60.37;;
8113;SDS011;4099;52.684;9.918;2023-08-31T00:33:53;52.73;;;49.23;;
8113;SDS011;4099;52.684;9.918;2023-08-31T00:38:56;45.43;;;42.07;;
8113;SDS011;4099;52.684;9.918;2023-08-31T00:44:00;41.10;;;38.13;;
8113;SDS011;4099;52.684;9.918;2023-08-31T00:49:05;33.67;;;31.13;;
8113;SDS011;4099;52.684;9.918;2023-08-31T00:54:07;32.87;;;30.33;;
8113;SDS011;4099;52.684;9.918;2023-08-31T00:59:10;32.40;;;29.53;;
8113;SDS011;4099;52.684;9.918;2023-08-31T01:04:16;35.50;;;32.70;;
8113;SDS011;4099;52.684;9.918;2023-08-31T01:09:27;40.37;;;37.67;;
8113;SDS011;4099;52.684;9.918;2023-08-31T01:14:42;44.83;;;41.60;;
8113;SDS011;4099;52.684;9.918;2023-08-31T01:19:49;52.87;;;49.27;;
8113;SDS011;4099;52.684;9.918;2023-08-31T01:24:54;52.57;;;49.40;;
8113;SDS011;4099;52.684;9.918;2023-08-31T01:29:56;49.60;;;46.20;;
8113;SDS011;4099;52.684;9.918;2023-08-31T01:35:00;37.87;;;34.90;;
8113;SDS011;4099;52.684;9.918;2023-08-31T01:40:06;31.37;;;28.73;;
8113;SDS011;4099;52.684;9.918;2023-08-31T01:45:15;25.90;;;23.40;;
8113;SDS011;4099;52.684;9.918;2023-08-31T01:50:20;24.17;;;22.27;;
8113;SDS011;4099;52.684;9.918;2023-08-31T01:55:24;24.90;;;22.67;;
8113;SDS011;4099;52.684;9.918;2023-08-31T02:00:26;24.77;;;22.57;;
8113;SDS011;4099;52.684;9.918;2023-08-31T02:05:30;24.30;;;22.07;;
8113;SDS011;4099;52.684;9.918;2023-08-31T02:10:34;21.90;;;19.93;;
8113;SDS011;4099;52.684;9.918;2023-08-31T02:15:37;22.57;;;20.60;;
8113;SDS011;4099;52.684;9.918;2023-08-31T02:20:39;22.73;;;20.83;;
8113;SDS011;4099;52.684;9.918;2023-08-31T02:25:43;25.03;;;22.97;;
8113;SDS011;4099;52.684;9.918;2023-08-31T02:30:46;27.10;;;24.73;;
8113;SDS011;4099;52.684;9.918;2023-08-31T02:35:58;32.33;;;29.77;;
8113;SDS011;4099;52.684;9.918;2023-08-31T02:41:03;35.37;;;32.80;;
8113;SDS011;4099;52.684;9.918;2023-08-31T02:46:05;33.33;;;30.77;;
8113;SDS011;4099;52.684;9.918;2023-08-31T02:51:07;26.00;;;23.87;;
8113;SDS011;4099;52.684;9.918;2023-08-31T02:56:10;20.63;;;18.50;;
8113;SDS011;4099;52.684;9.918;2023-08-31T03:01:13;22.47;;;20.43;;
8113;SDS011;4099;52.684;9.918;2023-08-31T03:06:20;23.07;;;20.60;;
8113;SDS011;4099;52.684;9.918;2023-08-31T03:11:24;21.97;;;20.03;;
8113;SDS011;4099;52.684;9.918;2023-08-31T03:16:26;20.50;;;18.47;;
8113;SDS011;4099;52.684;9.918;2023-08-31T03:21:30;20.20;;;18.20;;
8113;SDS011;4099;52.684;9.918;2023-08-31T03:26:35;19.80;;;18.03;;
8113;SDS011;4099;52.684;9.918;2023-08-31T03:31:37;19.40;;;17.70;;
8113;SDS011;4099;52.684;9.918;2023-08-31T03:36:40;20.77;;;18.70;;
8113;SDS011;4099;52.684;9.918;2023-08-31T03:41:44;20.37;;;17.83;;
8113;SDS011;4099;52.684;9.918;2023-08-31T03:46:47;18.93;;;17.13;;
8113;SDS011;4099;52.684;9.918;2023-08-31T03:51:49;19.70;;;16.33;;
8113;SDS011;4099;52.684;9.918;2023-08-31T03:56:55;19.33;;;17.33;;
8113;SDS011;4099;52.684;9.918;2023-08-31T04:01:58;20.70;;;18.63;;
8113;SDS011;4099;52.684;9.918;2023-08-31T04:07:02;18.70;;;16.17;;
8113;SDS011;4099;52.684;9.918;2023-08-31T04:12:07;20.27;;;18.00;;
8113;SDS011;4099;52.684;9.918;2023-08-31T04:17:10;22.57;;;18.83;;
8113;SDS011;4099;52.684;9.918;2023-08-31T04:22:12;20.33;;;18.33;;
8113;SDS011;4099;52.684;9.918;2023-08-31T04:27:15;20.17;;;18.03;;
8113;SDS011;4099;52.684;9.918;2023-08-31T04:32:17;19.77;;;17.97;;
8113;SDS011;4099;52.684;9.918;2023-08-31T04:37:20;20.27;;;18.37;;
8113;SDS011;4099;52.684;9.918;2023-08-31T04:42:24;21.50;;;19.50;;
8113;SDS011;4099;52.684;9.918;2023-08-31T04:47:27;22.37;;;20.13;;
8113;SDS011;4099;52.684;9.918;2023-08-31T04:52:28;21.80;;;19.50;;
8113;SDS011;4099;52.684;9.918;2023-08-31T04:57:32;20.63;;;18.40;;
8113;SDS011;4099;52.684;9.918;2023-08-31T05:02:34;20.43;;;18.63;;
8113;SDS011;4099;52.684;9.918;2023-08-31T05:07:37;23.33;;;18.03;;
8113;SDS011;4099;52.684;9.918;2023-08-31T05:12:41;19.13;;;17.13;;
8113;SDS011;4099;52.684;9.918;2023-08-31T05:17:44;18.50;;;16.80;;
8113;SDS011;4099;52.684;9.918;2023-08-31T05:22:45;18.70;;;16.90;;
8113;SDS011;4099;52.684;9.918;2023-08-31T05:27:49;19.07;;;17.17;;
8113;SDS011;4099;52.684;9.918;2023-08-31T05:32:51;18.57;;;16.63;;
8113;SDS011;4099;52.684;9.918;2023-08-31T05:37:53;18.00;;;16.30;;
8113;SDS011;4099;52.684;9.918;2023-08-31T05:42:56;18.63;;;16.90;;
8113;SDS011;4099;52.684;9.918;2023-08-31T05:47:58;17.80;;;16.03;;
8113;SDS011;4099;52.684;9.918;2023-08-31T05:53:01;17.47;;;15.60;;
8113;SDS011;4099;52.684;9.918;2023-08-31T05:58:04;19.60;;;16.33;;
8113;SDS011;4099;52.684;9.918;2023-08-31T06:03:06;19.03;;;17.30;;
8113;SDS011;4099;52.684;9.918;2023-08-31T06:08:12;18.10;;;16.40;;
8113;SDS011;4099;52.684;9.918;2023-08-31T06:13:16;20.13;;;17.43;;
8113;SDS011;4099;52.684;9.918;2023-08-31T06:18:19;22.17;;;20.57;;
8113;SDS011;4099;52.684;9.918;2023-08-31T06:23:21;31.07;;;28.17;;
8113;SDS011;4099;52.684;9.918;2023-08-31T06:28:24;32.83;;;30.33;;
8113;SDS011;4099;52.684;9.918;2023-08-31T06:33:26;54.70;;;51.50;;
8113;SDS011;4099;52.684;9.918;2023-08-31T06:38:29;57.20;;;53.83;;
8113;SDS011;4099;52.684;9.918;2023-08-31T06:43:33;50.80;;;47.57;;
8113;SDS011;4099;52.684;9.918;2023-08-31T06:48:36;34.97;;;32.57;;
8113;SDS011;4099;52.684;9.918;2023-08-31T06:53:38;23.20;;;20.93;;
8113;SDS011;4099;52.684;9.918;2023-08-31T06:58:42;21.77;;;19.60;;
8113;SDS011;4099;52.684;9.918;2023-08-31T07:03:44;22.63;;;20.53;;
8113;SDS011;4099;52.684;9.918;2023-08-31T07:08:47;22.67;;;20.77;;
8113;SDS011;4099;52.684;9.918;2023-08-31T07:13:50;27.30;;;25.00;;
8113;SDS011;4099;52.684;9.918;2023-08-31T07:18:53;24.93;;;22.90;;
8113;SDS011;4099;52.684;9.918;2023-08-31T07:23:55;25.90;;;23.80;;
8113;SDS011;4099;52.684;9.918;2023-08-31T07:28:59;25.13;;;23.07;;
8113;SDS011;4099;52.684;9.918;2023-08-31T07:34:02;26.57;;;24.33;;
8113;SDS011;4099;52.684;9.918;2023-08-31T07:39:05;28.60;;;26.40;;
8113;SDS011;4099;52.684;9.918;2023-08-31T07:44:09;28.90;;;26.60;;
8113;SDS011;4099;52.684;9.918;2023-08-31T07:49:11;30.63;;;28.20;;
8113;SDS011;4099;52.684;9.918;2023-08-31T07:54:19;30.43;;;28.03;;
8113;SDS011;4099;52.684;9.918;2023-08-31T07:59:23;28.40;;;26.03;;
8113;SDS011;4099;52.684;9.918;2023-08-31T08:04:26;31.83;;;29.53;;
8113;SDS011;4099;52.684;9.918;2023-08-31T08:09:29;30.97;;;28.37;;
8113;SDS011;4099;52.684;9.918;2023-08-31T08:14:33;50.97;;;47.43;;
8113;SDS011;4099;52.684;9.918;2023-08-31T08:19:35;43.93;;;40.63;;
8113;SDS011;4099;52.684;9.918;2023-08-31T08:24:37;38.07;;;35.10;;
8113;SDS011;4099;52.684;9.918;2023-08-31T08:29:41;38.53;;;35.73;;
8113;SDS011;4099;52.684;9.918;2023-08-31T08:34:43;38.73;;;35.93;;
8113;SDS011;4099;52.684;9.918;2023-08-31T08:39:47;40.03;;;37.23;;
8113;SDS011;4099;52.684;9.918;2023-08-31T08:44:52;38.17;;;35.37;;
8113;SDS011;4099;52.684;9.918;2023-08-31T08:49:54;36.47;;;33.40;;
8113;SDS011;4099;52.684;9.918;2023-08-31T08:54:59;33.27;;;30.83;;
8113;SDS011;4099;52.684;9.918;2023-08-31T09:00:05;36.80;;;33.77;;
8113;SDS011;4099;52.684;9.918;2023-08-31T09:05:08;63.50;;;59.90;;
8113;SDS011;4099;52.684;9.918;2023-08-31T09:10:10;65.40;;;61.67;;
8113;SDS011;4099;52.684;9.918;2023-08-31T09:15:13;46.40;;;43.63;;
8113;SDS011;4099;52.684;9.918;2023-08-31T09:20:15;22.57;;;20.93;;
8113;SDS011;4099;52.684;9.918;2023-08-31T09:25:18;23.60;;;21.97;;
8113;SDS011;4099;52.684;9.918;2023-08-31T09:30:21;19.67;;;18.20;;
8113;SDS011;4099;52.684;9.918;2023-08-31T09:35:23;26.27;;;24.30;;
8113;SDS011;4099;52.684;9.918;2023-08-31T09:40:26;75.07;;;71.27;;
8113;SDS011;4099;52.684;9.918;2023-08-31T09:45:30;19.57;;;17.83;;
8113;SDS011;4099;52.684;9.918;2023-08-31T09:50:33;22.73;;;21.13;;
8113;SDS011;4099;52.684;9.918;2023-08-31T09:55:36;22.73;;;20.97;;
8113;SDS011;4099;52.684;9.918;2023-08-31T10:00:42;27.67;;;26.07;;
8113;SDS011;4099;52.684;9.918;2023-08-31T10:05:46;37.60;;;35.47;;
8113;SDS011;4099;52.684;9.918;2023-08-31T10:10:50;34.73;;;32.83;;
8113;SDS011;4099;52.684;9.918;2023-08-31T10:15:54;33.60;;;31.90;;
8113;SDS011;4099;52.684;9.918;2023-08-31T10:20:57;27.03;;;25.57;;
8113;SDS011;4099;52.684;9.918;2023-08-31T10:26:01;11.60;;;10.80;;
8113;SDS011;4099;52.684;9.918;2023-08-31T10:31:08;11.10;;;10.03;;
8113;SDS011;4099;52.684;9.918;2023-08-31T10:36:12;12.40;;;11.60;;
8113;SDS011;4099;52.684;9.918;2023-08-31T10:41:19;28.30;;;26.80;;
8113;SDS011;4099;52.684;9.918;2023-08-31T10:46:29;84.63;;;80.70;;
8113;SDS011;4099;52.684;9.918;2023-08-31T10:51:32;117.73;;;112.07;;
8113;SDS011;4099;52.684;9.918;2023-08-31T10:56:38;43.70;;;41.27;;
8113;SDS011;4099;52.684;9.918;2023-08-31T11:01:57;20.37;;;18.93;;
8113;SDS011;4099;52.684;9.918;2023-08-31T11:07:14;70.50;;;67.10;;
8113;SDS011;4099;52.684;9.918;2023-08-31T11:12:17;83.93;;;79.87;;
8113;SDS011;4099;52.684;9.918;2023-08-31T11:17:25;83.67;;;79.40;;
8113;SDS011;4099;52.684;9.918;2023-08-31T11:22:29;82.53;;;78.63;;
8113;SDS011;4099;52.684;9.918;2023-08-31T11:27:31;100.37;;;96.03;;
8113;SDS011;4099;52.684;9.918;2023-08-31T11:32:35;78.10;;;74.63;;
8113;SDS011;4099;52.684;9.918;2023-08-31T11:37:37;132.27;;;126.87;;
8113;SDS011;4099;52.684;9.918;2023-08-31T11:42:39;52.60;;;50.17;;
8113;SDS011;4099;52.684;9.918;2023-08-31T11:47:44;86.23;;;82.50;;
8113;SDS011;4099;52.684;9.918;2023-08-31T11:52:47;73.60;;;70.40;;
8113;SDS011;4099;52.684;9.918;2023-08-31T11:57:49;73.37;;;69.73;;
8113;SDS011;4099;52.684;9.918;2023-08-31T12:02:59;62.07;;;59.27;;
8113;SDS011;4099;52.684;9.918;2023-08-31T12:08:05;17.67;;;16.67;;
8113;SDS011;4099;52.684;9.918;2023-08-31T12:13:08;17.63;;;16.63;;
8113;SDS011;4099;52.684;9.918;2023-08-31T12:18:11;24.13;;;22.90;;
8113;SDS011;4099;52.684;9.918;2023-08-31T12:23:14;23.93;;;22.63;;
8113;SDS011;4099;52.684;9.918;2023-08-31T12:28:16;54.77;;;52.23;;
8113;SDS011;4099;52.684;9.918;2023-08-31T12:33:20;65.30;;;62.43;;
8113;SDS011;4099;52.684;9.918;2023-08-31T12:38:23;75.07;;;71.70;;
8113;SDS011;4099;52.684;9.918;2023-08-31T12:43:25;25.43;;;24.13;;
8113;SDS011;4099;52.684;9.918;2023-08-31T12:48:28;51.20;;;48.80;;
8113;SDS011;4099;52.684;9.918;2023-08-31T12:53:30;107.03;;;102.60;;
8113;SDS011;4099;52.684;9.918;2023-08-31T12:58:33;13.77;;;12.90;;
8113;SDS011;4099;52.684;9.918;2023-08-31T13:03:37;29.90;;;28.43;;
8113;SDS011;4099;52.684;9.918;2023-08-31T13:08:39;9.87;;;9.40;;
8113;SDS011;4099;52.684;9.918;2023-08-31T13:13:41;13.90;;;13.10;;
8113;SDS011;4099;52.684;9.918;2023-08-31T13:18:44;58.07;;;55.50;;
8113;SDS011;4099;52.684;9.918;2023-08-31T13:23:47;112.13;;;107.40;;
8113;SDS011;4099;52.684;9.918;2023-08-31T13:28:49;39.70;;;37.73;;
8113;SDS011;4099;52.684;9.918;2023-08-31T13:33:53;17.87;;;16.97;;
8113;SDS011;4099;52.684;9.918;2023-08-31T13:38:55;17.30;;;16.47;;
8113;SDS011;4099;52.684;9.918;2023-08-31T13:43:57;21.40;;;20.40;;
8113;SDS011;4099;52.684;9.918;2023-08-31T13:49:01;15.90;;;15.10;;
8113;SDS011;4099;52.684;9.918;2023-08-31T13:54:04;59.00;;;56.13;;
8113;SDS011;4099;52.684;9.918;2023-08-31T13:59:07;64.17;;;60.87;;
8113;SDS011;4099;52.684;9.918;2023-08-31T14:04:10;71.27;;;68.30;;
8113;SDS011;4099;52.684;9.918;2023-08-31T14:09:13;39.57;;;37.70;;
8113;SDS011;4099;52.684;9.918;2023-08-31T14:14:15;79.03;;;75.53;;
8113;SDS011;4099;52.684;9.918;2023-08-31T14:19:19;76.73;;;73.43;;
8113;SDS011;4099;52.684;9.918;2023-08-31T14:24:22;12.77;;;12.00;;
8113;SDS011;4099;52.684;9.918;2023-08-31T14:29:24;28.83;;;27.53;;
8113;SDS011;4099;52.684;9.918;2023-08-31T14:34:27;19.80;;;18.90;;
8113;SDS011;4099;52.684;9.918;2023-08-31T14:39:29;18.10;;;17.20;;
8113;SDS011;4099;52.684;9.918;2023-08-31T14:44:31;44.83;;;42.90;;
8113;SDS011;4099;52.684;9.918;2023-08-31T14:49:38;85.67;;;82.17;;
8113;SDS011;4099;52.684;9.918;2023-08-31T14:54:41;16.03;;;15.23;;
8113;SDS011;4099;52.684;9.918;2023-08-31T14:59:43;10.53;;;9.83;;
8113;SDS011;4099;52.684;9.918;2023-08-31T15:04:49;51.53;;;49.03;;
8113;SDS011;4099;52.684;9.918;2023-08-31T15:09:52;96.83;;;92.97;;
8113;SDS011;4099;52.684;9.918;2023-08-31T15:14:55;11.13;;;10.63;;
8113;SDS011;4099;52.684;9.918;2023-08-31T15:19:59;14.93;;;14.30;;
8113;SDS011;4099;52.684;9.918;2023-08-31T15:25:01;97.30;;;93.30;;
8113;SDS011;4099;52.684;9.918;2023-08-31T15:30:05;80.43;;;77.17;;
8113;SDS011;4099;52.684;9.918;2023-08-31T15:35:10;34.40;;;32.77;;
8113;SDS011;4099;52.684;9.918;2023-08-31T15:40:12;23.60;;;22.53;;
8113;SDS011;4099;52.684;9.918;2023-08-31T15:45:14;19.50;;;18.70;;
8113;SDS011;4099;52.684;9.918;2023-08-31T15:50:18;24.03;;;22.83;;
8113;SDS011;4099;52.684;9.918;2023-08-31T15:55:20;26.13;;;24.97;;
8113;SDS011;4099;52.684;9.918;2023-08-31T16:00:22;20.33;;;19.47;;
8113;SDS011;4099;52.684;9.918;2023-08-31T16:05:26;27.83;;;26.63;;
8113;SDS011;4099;52.684;9.918;2023-08-31T16:10:28;26.90;;;25.70;;
8113;SDS011;4099;52.684;9.918;2023-08-31T16:15:31;26.23;;;25.13;;
8113;SDS011;4099;52.684;9.918;2023-08-31T16:20:35;23.23;;;22.17;;
8113;SDS011;4099;52.684;9.918;2023-08-31T16:25:38;14.53;;;13.93;;
8113;SDS011;4099;52.684;9.918;2023-08-31T16:30:40;28.47;;;27.17;;
8113;SDS011;4099;52.684;9.918;2023-08-31T16:35:48;27.40;;;26.10;;
8113;SDS011;4099;52.684;9.918;2023-08-31T16:40:50;27.23;;;26.03;;
8113;SDS011;4099;52.684;9.918;2023-08-31T16:45:53;24.00;;;23.00;;
8113;SDS011;4099;52.684;9.918;2023-08-31T16:50:56;26.40;;;25.30;;
8113;SDS011;4099;52.684;9.918;2023-08-31T16:55:59;28.50;;;27.30;;
8113;SDS011;4099;52.684;9.918;2023-08-31T17:01:01;25.03;;;23.77;;
8113;SDS011;4099;52.684;9.918;2023-08-31T17:06:04;19.07;;;18.23;;
8113;SDS011;4099;52.684;9.918;2023-08-31T17:11:07;24.87;;;23.70;;
8113;SDS011;4099;52.684;9.918;2023-08-31T17:16:11;26.87;;;25.67;;
8113;SDS011;4099;52.684;9.918;2023-08-31T17:21:14;29.53;;;27.93;;
8113;SDS011;4099;52.684;9.918;2023-08-31T17:26:19;31.43;;;30.03;;
8113;SDS011;4099;52.684;9.918;2023-08-31T17:31:22;32.40;;;30.90;;
8113;SDS011;4099;52.684;9.918;2023-08-31T17:36:27;31.13;;;29.73;;
8113;SDS011;4099;52.684;9.918;2023-08-31T17:41:30;12.70;;;12.07;;
8113;SDS011;4099;52.684;9.918;2023-08-31T17:46:32;18.33;;;17.53;;
8113;SDS011;4099;52.684;9.918;2023-08-31T17:51:36;42.07;;;40.30;;
8113;SDS011;4099;52.684;9.918;2023-08-31T17:56:38;59.53;;;57.13;;
8113;SDS011;4099;52.684;9.918;2023-08-31T18:01:40;36.73;;;35.17;;
8113;SDS011;4099;52.684;9.918;2023-08-31T18:06:44;35.90;;;34.40;;
8113;SDS011;4099;52.684;9.918;2023-08-31T18:11:46;50.60;;;48.30;;
8113;SDS011;4099;52.684;9.918;2023-08-31T18:16:48;53.17;;;50.93;;
8113;SDS011;4099;52.684;9.918;2023-08-31T18:21:52;59.87;;;57.17;;
8113;SDS011;4099;52.684;9.918;2023-08-31T18:26:55;63.73;;;60.93;;
8113;SDS011;4099;52.684;9.918;2023-08-31T18:31:56;78.17;;;74.87;;
8113;SDS011;4099;52.684;9.918;2023-08-31T18:37:00;51.80;;;49.50;;
8113;SDS011;4099;52.684;9.918;2023-08-31T18:42:03;23.93;;;22.67;;
8113;SDS011;4099;52.684;9.918;2023-08-31T18:47:07;17.33;;;16.53;;
8113;SDS011;4099;52.684;9.918;2023-08-31T18:52:10;16.03;;;15.23;;
8113;SDS011;4099;52.684;9.918;2023-08-31T18:57:12;14.50;;;13.80;;
8113;SDS011;4099;52.684;9.918;2023-08-31T19:02:15;15.00;;;14.20;;
8113;SDS011;4099;52.684;9.918;2023-08-31T19:07:18;14.97;;;14.27;;
8113;SDS011;4099;52.684;9.918;2023-08-31T19:12:21;13.70;;;13.00;;
8113;SDS011;4099;52.684;9.918;2023-08-31T19:17:24;16.33;;;15.20;;
8113;SDS011;4099;52.684;9.918;2023-08-31T19:22:27;12.83;;;12.10;;
8113;SDS011;4099;52.684;9.918;2023-08-31T19:27:29;11.57;;;10.87;;
8113;SDS011;4099;52.684;9.918;2023-08-31T19:32:31;11.60;;;10.97;;
8113;SDS011;4099;52.684;9.918;2023-08-31T19:37:35;11.80;;;11.07;;
8113;SDS011;4099;52.684;9.918;2023-08-31T19:42:38;11.23;;;10.57;;
8113;SDS011;4099;52.684;9.918;2023-08-31T19:47:40;10.70;;;9.93;;
8113;SDS011;4099;52.684;9.918;2023-08-31T19:52:44;10.20;;;9.63;;
8113;SDS011;4099;52.684;9.918;2023-08-31T19:57:47;10.23;;;9.37;;
8113;SDS011;4099;52.684;9.918;2023-08-31T20:02:50;10.47;;;9.87;;
8113;SDS011;4099;52.684;9.918;2023-08-31T20:07:54;8.70;;;8.20;;
8113;SDS011;4099;52.684;9.918;2023-08-31T20:12:56;8.40;;;7.90;;
8113;SDS011;4099;52.684;9.918;2023-08-31T20:17:59;9.57;;;9.07;;
8113;SDS011;4099;52.684;9.918;2023-08-31T20:23:03;9.47;;;8.90;;
8113;SDS011;4099;52.684;9.918;2023-08-31T20:28:05;9.00;;;8.40;;
8113;SDS011;4099;52.684;9.918;2023-08-31T20:33:07;9.53;;;8.73;;
8113;SDS011;4099;52.684;9.918;2023-08-31T20:38:12;8.67;;;8.13;;
8113;SDS011;4099;52.684;9.918;2023-08-31T20:43:15;8.37;;;7.80;;
8113;SDS011;4099;52.684;9.918;2023-08-31T20:48:17;7.83;;;7.33;;
8113;SDS011;4099;52.684;9.918;2023-08-31T20:53:22;7.40;;;7.00;;
8113;SDS011;4099;52.684;9.918;2023-08-31T20:58:24;9.10;;;8.57;;
8113;SDS011;4099;52.684;9.918;2023-08-31T21:03:27;8.60;;;8.20;;
8113;SDS011;4099;52.684;9.918;2023-08-31T21:08:31;8.87;;;8.27;;
8113;SDS011;4099;52.684;9.918;2023-08-31T21:13:33;7.47;;;7.07;;
8113;SDS011;4099;52.684;9.918;2023-08-31T21:18:37;8.07;;;7.60;;
8113;SDS011;4099;52.684;9.918;2023-08-31T21:23:41;7.77;;;7.27;;
8113;SDS011;4099;52.684;9.918;2023-08-31T21:28:43;7.67;;;7.27;;
8113;SDS011;4099;52.684;9.918;2023-08-31T21:33:46;6.60;;;6.30;;
8113;SDS011;4099;52.684;9.918;2023-08-31T21:38:49;7.00;;;6.50;;
8113;SDS011;4099;52.684;9.918;2023-08-31T21:43:51;6.80;;;6.40;;
8113;SDS011;4099;52.684;9.918;2023-08-31T21:48:57;6.70;;;6.30;;
8113;SDS011;4099;52.684;9.918;2023-08-31T21:54:00;7.50;;;7.10;;
8113;SDS011;4099;52.684;9.918;2023-08-31T21:59:02;7.23;;;6.73;;
8113;SDS011;4099;52.684;9.918;2023-08-31T22:04:05;7.17;;;6.57;;
8113;SDS011;4099;52.684;9.918;2023-08-31T22:09:08;6.97;;;6.23;;
8113;SDS011;4099;52.684;9.918;2023-08-31T22:14:10;6.50;;;6.10;;
8113;SDS011;4099;52.684;9.918;2023-08-31T22:19:13;6.83;;;6.33;;
8113;SDS011;4099;52.684;9.918;2023-08-31T22:24:17;6.57;;;6.17;;
8113;SDS011;4099;52.684;9.918;2023-08-31T22:29:20;6.47;;;5.97;;
8113;SDS011;4099;52.684;9.918;2023-08-31T22:34:22;6.13;;;5.73;;
8113;SDS011;4099;52.684;9.918;2023-08-31T22:39:26;6.63;;;6.13;;
8113;SDS011;4099;52.684;9.918;2023-08-31T22:44:29;7.37;;;6.77;;
8113;SDS011;4099;52.684;9.918;2023-08-31T22:49:31;7.27;;;6.77;;
8113;SDS011;4099;52.684;9.918;2023-08-31T22:54:35;7.47;;;6.80;;
8113;SDS011;4099;52.684;9.918;2023-08-31T22:59:37;7.27;;;6.70;;
8113;SDS011;4099;52.684;9.918;2023-08-31T23:04:40;7.50;;;6.83;;
8113;SDS011;4099;52.684;9.918;2023-08-31T23:09:44;7.03;;;6.60;;
8113;SDS011;4099;52.684;9.918;2023-08-31T23:14:46;6.93;;;6.50;;
8113;SDS011;4099;52.684;9.918;2023-08-31T23:19:47;7.00;;;6.33;;
8113;SDS011;4099;52.684;9.918;2023-08-31T23:24:52;7.47;;;6.97;;
8113;SDS011;4099;52.684;9.918;2023-08-31T23:29:54;7.20;;;6.60;;
8113;SDS011;4099;52.684;9.918;2023-08-31T23:34:56;7.53;;;6.93;;
8113;SDS011;4099;52.684;9.918;2023-08-31T23:40:00;7.60;;;7.10;;
8113;SDS011;4099;52.684;9.918;2023-08-31T23:45:05;7.17;;;6.77;;
8113;SDS011;4099;52.684;9.918;2023-08-31T23:50:08;8.57;;;7.80;;
8113;SDS011;4099;52.684;9.918;2023-08-31T23:55:12;8.20;;;7.70;;
